Time;durP1;ratioP1;P1;durP2;ratioP2;P2;SDS_P1;SDS_P2;PMS_P1;PMS_P2;Temp;Humidity;BMP_temperature;BMP_pressure;BME280_temperature;BME280_humidity;BME280_pressure;Samples;Min_cycle;Max_cycle;Signal;HPM_P1;HPM_P2
2023/08/30 00:01:08;;;;;;;14.57;12.95;;;14.60;99.90;;;;;;5103853;27;20497;-57
2023/08/30 00:03:34;;;;;;;12.60;11.27;;;14.60;99.90;;;;;;5094056;28;20040;-57
2023/08/30 00:06:06;;;;;;;15.63;14.10;;;14.60;99.90;;;;;;5078159;28;20054;-57
2023/08/30 00:08:33;;;;;;;15.30;13.70;;;14.60;99.90;;;;;;5095059;27;20517;-55
2023/08/30 00:10:59;;;;;;;16.02;13.65;;;14.60;99.90;;;;;;5083195;28;20047;-56
2023/08/30 00:13:26;;;;;;;15.75;14.23;;;14.60;99.90;;;;;;5080261;28;20406;-57
2023/08/30 00:15:51;;;;;;;14.93;13.43;;;14.60;99.90;;;;;;5092542;28;20101;-57
2023/08/30 00:18:20;;;;;;;23.60;14.88;;;14.70;99.90;;;;;;5079526;28;20275;-57
2023/08/30 00:20:45;;;;;;;12.70;11.45;;;14.60;99.90;;;;;;5097907;28;20036;-56
2023/08/30 00:23:11;;;;;;;15.48;13.88;;;14.60;99.90;;;;;;5100352;28;20048;-57
2023/08/30 00:25:37;;;;;;;14.63;12.93;;;14.60;99.90;;;;;;5078704;28;20083;-57
2023/08/30 00:28:03;;;;;;;13.98;12.63;;;14.60;99.90;;;;;;5074636;28;20075;-57
2023/08/30 00:30:28;;;;;;;14.43;12.98;;;14.60;99.90;;;;;;5113234;27;20045;-57
2023/08/30 00:32:54;;;;;;;17.83;14.93;;;14.60;99.90;;;;;;5102519;28;20039;-57
2023/08/30 00:35:20;;;;;;;13.63;12.23;;;14.50;99.90;;;;;;5113308;27;20073;-56
2023/08/30 00:37:45;;;;;;;13.30;11.52;;;14.60;99.90;;;;;;5104963;27;20047;-54
2023/08/30 00:40:11;;;;;;;14.32;12.90;;;14.50;99.90;;;;;;5082652;28;20042;-55
2023/08/30 00:42:37;;;;;;;14.02;11.93;;;14.50;99.90;;;;;;5098474;27;20132;-57
2023/08/30 00:45:04;;;;;;;16.17;13.93;;;14.50;99.90;;;;;;5082464;28;20043;-57
2023/08/30 00:47:30;;;;;;;14.20;12.25;;;14.50;99.90;;;;;;5089693;28;20044;-57
2023/08/30 00:49:55;;;;;;;15.05;13.45;;;14.40;99.90;;;;;;5079775;27;20035;-58
2023/08/30 00:52:21;;;;;;;13.82;12.30;;;14.40;99.90;;;;;;5085135;28;20047;-57
2023/08/30 00:54:47;;;;;;;14.50;11.75;;;14.40;99.90;;;;;;5101376;28;20118;-56
2023/08/30 00:57:13;;;;;;;14.93;13.32;;;14.30;99.90;;;;;;5097233;28;20036;-55
2023/08/30 00:59:39;;;;;;;13.88;11.10;;;14.30;99.90;;;;;;5084718;27;20118;-56
2023/08/30 01:02:05;;;;;;;13.43;12.02;;;14.20;99.90;;;;;;5098492;27;20416;-56
2023/08/30 01:04:31;;;;;;;13.35;11.73;;;14.20;99.90;;;;;;5101822;28;20039;-54
2023/08/30 01:06:58;;;;;;;12.63;11.23;;;14.20;99.90;;;;;;5085355;28;20077;-55
2023/08/30 01:09:25;;;;;;;13.02;11.35;;;14.10;99.90;;;;;;5095459;27;20525;-56
2023/08/30 01:11:57;;;;;;;12.38;10.68;;;14.10;99.90;;;;;;5100123;27;20114;-56
2023/08/30 01:14:45;;;;;;;12.68;11.40;;;14.10;99.90;;;;;;5102038;27;20183;-55
2023/08/30 01:17:15;;;;;;;14.25;12.60;;;14.10;99.90;;;;;;5101148;27;20127;-57
2023/08/30 01:20:08;;;;;;;13.07;11.68;;;14.00;99.90;;;;;;5094365;27;20108;-57
2023/08/30 01:22:57;;;;;;;13.50;12.10;;;14.00;99.90;;;;;;5106002;27;20039;-57
2023/08/30 01:26:03;;;;;;;13.73;12.35;;;14.00;99.90;;;;;;5091662;27;20051;-58
2023/08/30 01:28:32;;;;;;;15.32;12.82;;;14.00;99.90;;;;;;5101423;27;20429;-58
2023/08/30 01:30:59;;;;;;;14.55;13.07;;;13.90;99.90;;;;;;5110907;27;20142;-57
2023/08/30 01:33:27;;;;;;;16.33;13.95;;;13.90;99.90;;;;;;5100325;27;20055;-59
2023/08/30 01:35:55;;;;;;;14.88;13.38;;;13.90;99.90;;;;;;5101858;27;20044;-57
2023/08/30 01:38:22;;;;;;;12.93;11.45;;;13.80;99.90;;;;;;5100004;27;20103;-55
2023/08/30 01:40:49;;;;;;;14.07;12.57;;;13.80;99.90;;;;;;5096900;28;20080;-58
2023/08/30 01:43:16;;;;;;;14.40;12.90;;;13.80;99.90;;;;;;5104839;28;20031;-57
2023/08/30 01:45:43;;;;;;;14.77;12.07;;;13.80;99.90;;;;;;5097247;27;20119;-58
2023/08/30 01:48:13;;;;;;;12.75;11.20;;;13.80;99.90;;;;;;5100509;27;20483;-56
2023/08/30 01:50:40;;;;;;;16.83;13.68;;;13.80;99.90;;;;;;5097604;27;20163;-58
2023/08/30 01:53:07;;;;;;;13.50;11.75;;;13.70;99.90;;;;;;5106537;27;20683;-57
2023/08/30 01:55:35;;;;;;;13.68;12.13;;;13.70;99.90;;;;;;5080362;28;20123;-58
2023/08/30 01:58:02;;;;;;;15.95;12.30;;;13.70;99.90;;;;;;5094916;27;20096;-58
2023/08/30 02:00:27;;;;;;;15.38;12.73;;;13.70;99.90;;;;;;5098910;28;20036;-57
2023/08/30 02:02:53;;;;;;;14.38;12.88;;;13.60;99.90;;;;;;5082771;27;20565;-55
2023/08/30 02:05:19;;;;;;;16.20;12.50;;;13.60;99.90;;;;;;5103168;27;20036;-57
2023/08/30 02:07:54;;;;;;;13.73;12.25;;;13.50;99.90;;;;;;5083514;28;20130;-57
2023/08/30 02:10:27;;;;;;;15.30;13.35;;;13.50;99.90;;;;;;5094557;27;20043;-55
2023/08/30 02:12:55;;;;;;;15.95;13.43;;;13.50;99.90;;;;;;5077132;28;20052;-57
2023/08/30 02:15:22;;;;;;;13.80;12.40;;;13.50;99.90;;;;;;5102499;27;20047;-56
2023/08/30 02:17:49;;;;;;;13.55;12.13;;;13.40;99.90;;;;;;5092960;27;20439;-56
2023/08/30 02:20:16;;;;;;;12.98;11.35;;;13.40;99.90;;;;;;5099113;28;20032;-57
2023/08/30 02:22:41;;;;;;;13.45;11.95;;;13.40;99.90;;;;;;5099102;27;20028;-57
2023/08/30 02:25:07;;;;;;;12.95;11.38;;;13.40;99.90;;;;;;5096836;27;20092;-57
2023/08/30 02:27:37;;;;;;;14.80;12.95;;;13.40;99.90;;;;;;5073449;28;20071;-56
2023/08/30 02:30:03;;;;;;;12.40;11.10;;;13.40;99.90;;;;;;5100848;28;20039;-57
2023/08/30 02:32:29;;;;;;;14.32;11.90;;;13.40;99.90;;;;;;5096185;27;20040;-58
2023/08/30 02:34:56;;;;;;;13.50;11.93;;;13.30;99.90;;;;;;5096373;27;20092;-58
2023/08/30 02:37:22;;;;;;;17.33;13.20;;;13.30;99.90;;;;;;5105778;27;20048;-56
2023/08/30 02:39:48;;;;;;;17.33;12.73;;;13.30;99.90;;;;;;5098845;27;20137;-57
2023/08/30 02:42:14;;;;;;;13.18;11.55;;;13.30;99.90;;;;;;5095882;27;20085;-56
2023/08/30 02:44:39;;;;;;;14.25;12.55;;;13.30;99.90;;;;;;5099349;27;20047;-57
2023/08/30 02:47:05;;;;;;;13.38;11.25;;;13.30;99.90;;;;;;5095706;28;20403;-58
2023/08/30 02:49:31;;;;;;;14.30;11.18;;;13.20;99.90;;;;;;5105923;27;20074;-58
2023/08/30 02:51:57;;;;;;;13.07;11.55;;;13.20;99.90;;;;;;5110186;27;20036;-58
2023/08/30 02:54:22;;;;;;;12.90;11.57;;;13.20;99.90;;;;;;5096249;27;20047;-58
2023/08/30 02:56:49;;;;;;;15.85;12.73;;;13.20;99.90;;;;;;5081867;28;20035;-56
2023/08/30 02:59:14;;;;;;;14.27;12.25;;;13.20;99.90;;;;;;5097094;27;20075;-56
2023/08/30 03:01:40;;;;;;;12.80;11.20;;;13.20;99.90;;;;;;5101996;28;20067;-57
2023/08/30 03:04:06;;;;;;;12.90;11.32;;;13.20;99.90;;;;;;5092044;28;20479;-55
2023/08/30 03:06:33;;;;;;;13.60;12.05;;;13.30;99.90;;;;;;5096154;27;20063;-57
2023/08/30 03:08:59;;;;;;;16.50;13.00;;;13.30;99.90;;;;;;5097591;27;20043;-57
2023/08/30 03:11:25;;;;;;;14.70;12.43;;;13.30;99.90;;;;;;5098958;28;20453;-58
2023/08/30 03:13:51;;;;;;;14.07;12.32;;;13.30;99.90;;;;;;5097832;27;20070;-57
2023/08/30 03:16:17;;;;;;;13.43;11.30;;;13.30;99.90;;;;;;5083800;27;20521;-57
2023/08/30 03:18:43;;;;;;;13.52;11.98;;;13.30;99.90;;;;;;5097781;27;20078;-57
2023/08/30 03:21:10;;;;;;;13.93;12.00;;;13.40;99.90;;;;;;5079342;28;20046;-56
2023/08/30 03:23:35;;;;;;;13.38;11.98;;;13.40;99.90;;;;;;5096841;28;20448;-57
2023/08/30 03:26:17;;;;;;;13.70;11.68;;;13.40;99.90;;;;;;5104799;27;20137;-58
2023/08/30 03:28:43;;;;;;;15.95;12.85;;;13.40;99.90;;;;;;5101948;27;20154;-56
2023/08/30 03:31:17;;;;;;;18.13;13.68;;;13.40;99.90;;;;;;5097768;27;20152;-58
2023/08/30 03:33:44;;;;;;;15.38;12.10;;;13.50;99.90;;;;;;5087849;28;20070;-58
2023/08/30 03:36:14;;;;;;;15.52;12.93;;;13.50;99.90;;;;;;5100221;27;20198;-57
2023/08/30 03:38:40;;;;;;;14.88;12.15;;;13.50;99.90;;;;;;5101043;27;20035;-56
2023/08/30 03:41:07;;;;;;;17.00;13.60;;;13.50;99.90;;;;;;5107408;27;20474;-58
2023/08/30 03:43:33;;;;;;;15.05;12.23;;;13.50;99.90;;;;;;5082835;28;20804;-58
2023/08/30 03:46:00;;;;;;;14.88;12.68;;;13.60;99.90;;;;;;5102214;28;20043;-58
2023/08/30 03:48:27;;;;;;;13.85;11.52;;;13.60;99.90;;;;;;5106250;27;20445;-58
2023/08/30 03:50:54;;;;;;;17.15;13.35;;;13.60;99.90;;;;;;5100456;27;20530;-56
2023/08/30 03:53:19;;;;;;;15.57;13.02;;;13.60;99.90;;;;;;5080330;28;20043;-57
2023/08/30 03:55:45;;;;;;;15.70;13.13;;;13.60;99.90;;;;;;5095325;28;20055;-57
2023/08/30 03:58:11;;;;;;;14.43;12.50;;;13.60;99.90;;;;;;5098252;27;20513;-58
2023/08/30 04:00:37;;;;;;;16.55;14.13;;;13.60;99.90;;;;;;5098472;28;20092;-54
2023/08/30 04:03:04;;;;;;;17.55;14.00;;;13.70;99.90;;;;;;5104509;27;20050;-58
2023/08/30 04:05:34;;;;;;;14.75;12.65;;;13.70;99.90;;;;;;5098638;28;20407;-57
2023/08/30 04:08:00;;;;;;;16.92;13.32;;;13.70;99.90;;;;;;5091946;28;20032;-57
2023/08/30 04:10:26;;;;;;;18.17;13.40;;;13.70;99.90;;;;;;5104296;28;20035;-56
2023/08/30 04:12:52;;;;;;;14.15;12.48;;;13.70;99.90;;;;;;5107795;27;20051;-58
2023/08/30 04:15:18;;;;;;;16.67;13.80;;;13.70;99.90;;;;;;5132491;27;20130;-58
2023/08/30 04:17:43;;;;;;;17.92;13.57;;;13.70;99.90;;;;;;5103504;28;20073;-58
2023/08/30 04:20:12;;;;;;;17.05;13.13;;;13.70;99.90;;;;;;5099460;28;20063;-56
2023/08/30 04:22:38;;;;;;;15.15;13.43;;;13.80;99.90;;;;;;5095132;28;20500;-57
2023/08/30 04:25:04;;;;;;;14.95;11.95;;;13.80;99.90;;;;;;5048004;28;20043;-55
2023/08/30 04:27:30;;;;;;;14.32;12.73;;;13.80;99.90;;;;;;5096889;28;20035;-55
2023/08/30 04:29:56;;;;;;;17.38;14.05;;;13.70;99.90;;;;;;5092337;28;20039;-58
2023/08/30 04:32:22;;;;;;;18.00;14.52;;;13.80;99.90;;;;;;5099326;28;20311;-57
2023/08/30 04:34:47;;;;;;;15.07;13.10;;;13.80;99.90;;;;;;5113055;27;20125;-57
2023/08/30 04:37:13;;;;;;;16.50;14.15;;;13.80;99.90;;;;;;5085632;28;20093;-56
2023/08/30 04:39:40;;;;;;;16.73;13.15;;;13.80;99.90;;;;;;5090716;28;20529;-55
2023/08/30 04:42:06;;;;;;;13.77;12.18;;;13.80;99.90;;;;;;5093616;28;20040;-57
2023/08/30 04:44:32;;;;;;;15.43;13.13;;;13.80;99.90;;;;;;5094418;28;20040;-57
2023/08/30 04:46:58;;;;;;;14.57;12.50;;;13.80;99.90;;;;;;5097211;28;20071;-55
2023/08/30 04:49:25;;;;;;;16.63;13.80;;;13.80;99.90;;;;;;5077108;28;20059;-53
2023/08/30 04:51:51;;;;;;;17.90;13.25;;;13.80;99.90;;;;;;5094751;28;20039;-58
2023/08/30 04:54:17;;;;;;;18.83;13.93;;;13.80;99.90;;;;;;5099618;28;20043;-58
2023/08/30 04:56:43;;;;;;;17.90;14.25;;;13.80;99.90;;;;;;5097420;28;20530;-55
2023/08/30 04:59:08;;;;;;;15.85;13.82;;;13.90;99.90;;;;;;5099648;28;20043;-58
2023/08/30 05:01:34;;;;;;;17.08;13.48;;;13.90;99.90;;;;;;5092510;28;20043;-57
2023/08/30 05:04:00;;;;;;;17.20;13.75;;;13.90;99.90;;;;;;5081097;28;20105;-58
2023/08/30 05:06:26;;;;;;;15.68;14.07;;;13.90;99.90;;;;;;5098286;28;20039;-58
2023/08/30 05:08:52;;;;;;;14.70;13.13;;;13.90;99.90;;;;;;5080261;28;20170;-57
2023/08/30 05:11:18;;;;;;;18.05;14.73;;;13.90;99.90;;;;;;5093348;28;20549;-57
2023/08/30 05:13:46;;;;;;;16.50;13.20;;;13.90;99.90;;;;;;5105243;28;20702;-57
2023/08/30 05:16:12;;;;;;;17.98;14.23;;;13.90;99.90;;;;;;5095546;28;20031;-58
2023/08/30 05:18:37;;;;;;;18.73;14.35;;;13.90;99.90;;;;;;5101260;28;20448;-57
2023/08/30 05:21:04;;;;;;;12.90;11.43;;;13.90;99.90;;;;;;5103090;27;20043;-58
2023/08/30 05:23:30;;;;;;;17.55;14.35;;;13.90;99.90;;;;;;5103961;27;20114;-58
2023/08/30 05:25:55;;;;;;;18.48;14.60;;;13.90;99.90;;;;;;5104174;27;20119;-55
2023/08/30 05:28:21;;;;;;;17.85;13.45;;;14.00;99.90;;;;;;5104314;27;20069;-57
2023/08/30 05:30:47;;;;;;;16.55;14.00;;;14.00;99.90;;;;;;5099647;27;20048;-58
2023/08/30 05:33:12;;;;;;;17.55;13.68;;;14.00;99.90;;;;;;5096941;27;20047;-57
2023/08/30 05:35:38;;;;;;;16.83;13.85;;;14.00;99.90;;;;;;5094608;28;20462;-58
2023/08/30 05:38:04;;;;;;;18.13;12.65;;;14.00;99.90;;;;;;5106512;28;20036;-58
2023/08/30 05:40:29;;;;;;;17.67;13.35;;;14.00;99.90;;;;;;5094183;27;20089;-57
2023/08/30 05:42:55;;;;;;;15.15;13.25;;;14.00;99.90;;;;;;5103638;28;20508;-57
2023/08/30 05:45:21;;;;;;;16.92;13.75;;;14.10;99.90;;;;;;5101389;28;20051;-58
2023/08/30 05:47:47;;;;;;;16.92;13.35;;;14.10;99.90;;;;;;5097541;28;20047;-57
2023/08/30 05:50:13;;;;;;;17.13;13.18;;;14.10;99.90;;;;;;5099655;27;20055;-58
2023/08/30 05:52:41;;;;;;;18.58;13.52;;;14.10;99.90;;;;;;5099517;28;20491;-56
2023/08/30 05:55:08;;;;;;;18.48;12.38;;;14.10;99.90;;;;;;5080372;28;20035;-58
2023/08/30 05:57:34;;;;;;;17.40;12.25;;;14.10;99.90;;;;;;5097946;27;20395;-57
2023/08/30 06:00:01;;;;;;;16.35;12.25;;;14.20;99.90;;;;;;5082737;28;20039;-57
2023/08/30 06:02:27;;;;;;;22.90;12.88;;;14.20;99.90;;;;;;5099849;28;20032;-57
2023/08/30 06:04:52;;;;;;;19.33;13.30;;;14.20;99.90;;;;;;5099936;27;20043;-56
2023/08/30 06:07:18;;;;;;;15.75;13.07;;;14.20;99.90;;;;;;5083086;28;20421;-55
2023/08/30 06:09:44;;;;;;;15.60;12.35;;;14.20;99.90;;;;;;5103821;27;20035;-56
2023/08/30 06:12:10;;;;;;;17.05;13.45;;;14.20;99.90;;;;;;5109984;27;20050;-58
2023/08/30 06:14:35;;;;;;;15.10;12.27;;;14.30;99.90;;;;;;5097835;27;20054;-57
2023/08/30 06:17:02;;;;;;;16.02;13.45;;;14.30;99.90;;;;;;5080373;28;20090;-56
2023/08/30 06:19:27;;;;;;;16.65;13.13;;;14.30;99.90;;;;;;5081963;27;20125;-58
2023/08/30 06:21:53;;;;;;;17.48;13.00;;;14.30;99.90;;;;;;5103211;27;20579;-58
2023/08/30 06:24:19;;;;;;;17.23;13.52;;;14.30;99.90;;;;;;5098442;27;20491;-58
2023/08/30 06:26:45;;;;;;;17.17;13.35;;;14.30;99.90;;;;;;5105970;27;20451;-58
2023/08/30 06:29:10;;;;;;;16.50;12.40;;;14.30;99.90;;;;;;5101320;27;20075;-57
2023/08/30 06:31:36;;;;;;;20.15;13.32;;;14.40;99.90;;;;;;5098229;27;20040;-58
2023/08/30 06:34:02;;;;;;;16.73;12.68;;;14.40;99.90;;;;;;5099036;28;20132;-58
2023/08/30 06:36:28;;;;;;;15.10;12.00;;;14.40;99.90;;;;;;5098695;27;20460;-58
2023/08/30 06:38:53;;;;;;;14.70;11.88;;;14.50;99.90;;;;;;5103843;28;20116;-58
2023/08/30 06:41:19;;;;;;;15.20;11.57;;;14.50;99.90;;;;;;5083160;27;20085;-58
2023/08/30 06:43:45;;;;;;;15.30;12.38;;;14.50;99.90;;;;;;5116433;27;20061;-59
2023/08/30 06:46:10;;;;;;;18.38;12.55;;;14.50;99.90;;;;;;5077641;28;20089;-57
2023/08/30 06:48:36;;;;;;;15.50;11.32;;;14.60;99.90;;;;;;5088203;28;20028;-58
2023/08/30 06:51:02;;;;;;;15.30;10.38;;;14.60;99.90;;;;;;5095718;28;20145;-58
2023/08/30 06:53:28;;;;;;;14.63;11.65;;;14.70;99.90;;;;;;5099420;28;20043;-58
2023/08/30 06:55:58;;;;;;;14.63;10.90;;;14.70;99.90;;;;;;5099499;27;20043;-58
2023/08/30 06:58:24;;;;;;;15.88;11.63;;;14.90;99.90;;;;;;5096821;27;20051;-57
2023/08/30 07:00:49;;;;;;;15.30;11.02;;;15.00;99.90;;;;;;5087409;27;20044;-58
2023/08/30 07:03:15;;;;;;;15.25;12.25;;;15.20;99.90;;;;;;5097947;27;20212;-58
2023/08/30 07:05:43;;;;;;;15.43;11.25;;;15.40;99.90;;;;;;5097431;28;20058;-58
2023/08/30 07:08:09;;;;;;;14.10;10.25;;;15.40;99.90;;;;;;5084641;28;20040;-58
2023/08/30 07:10:35;;;;;;;15.60;10.93;;;15.50;99.90;;;;;;5098075;27;20039;-58
2023/08/30 07:13:01;;;;;;;14.07;11.00;;;15.60;99.90;;;;;;5102074;27;20040;-58
2023/08/30 07:15:26;;;;;;;13.88;10.93;;;15.70;99.90;;;;;;5096033;27;20418;-58
2023/08/30 07:17:52;;;;;;;14.07;11.43;;;15.80;99.90;;;;;;5100145;27;20407;-58
2023/08/30 07:20:18;;;;;;;15.63;10.65;;;15.90;99.90;;;;;;5102565;28;20039;-56
2023/08/30 07:22:43;;;;;;;13.60;10.05;;;15.80;99.90;;;;;;5106725;27;20035;-56
2023/08/30 07:25:13;;;;;;;15.38;10.35;;;15.90;99.90;;;;;;5088314;28;20039;-57
2023/08/30 07:27:39;;;;;;;12.98;9.90;;;15.90;99.90;;;;;;5099758;27;20035;-57
2023/08/30 07:30:05;;;;;;;15.07;10.77;;;15.90;99.90;;;;;;5097131;27;20040;-58
2023/08/30 07:32:31;;;;;;;12.43;9.68;;;15.90;99.90;;;;;;5091945;28;20054;-58
2023/08/30 07:34:57;;;;;;;14.38;10.93;;;15.90;99.90;;;;;;5101622;27;20430;-57
2023/08/30 07:37:22;;;;;;;13.80;10.30;;;15.90;99.90;;;;;;5104174;27;20093;-57
2023/08/30 07:39:48;;;;;;;13.82;10.60;;;15.90;99.90;;;;;;5092145;27;20077;-58
2023/08/30 07:42:14;;;;;;;11.90;9.48;;;16.00;99.90;;;;;;5103954;27;20042;-59
2023/08/30 07:44:41;;;;;;;13.80;10.90;;;16.00;99.90;;;;;;5101625;27;20096;-57
2023/08/30 07:47:06;;;;;;;13.50;10.15;;;16.00;99.90;;;;;;5097919;28;20040;-58
2023/08/30 07:49:32;;;;;;;13.80;10.18;;;16.00;99.90;;;;;;5094477;28;20043;-58
2023/08/30 07:51:58;;;;;;;11.85;9.27;;;16.10;99.90;;;;;;5097715;28;20372;-58
2023/08/30 07:54:23;;;;;;;11.27;8.50;;;16.20;99.90;;;;;;5098010;27;20098;-58
2023/08/30 07:56:49;;;;;;;12.45;9.40;;;16.20;99.90;;;;;;5083261;28;20822;-58
2023/08/30 07:59:15;;;;;;;12.30;8.85;;;16.30;99.90;;;;;;5096658;28;20040;-58
2023/08/30 08:01:42;;;;;;;12.70;9.18;;;16.30;99.90;;;;;;5094953;27;20495;-58
2023/08/30 08:04:07;;;;;;;11.63;9.45;;;16.30;99.90;;;;;;5105464;27;20112;-58
2023/08/30 08:06:33;;;;;;;11.65;8.43;;;16.30;99.90;;;;;;5096868;28;20040;-58
2023/08/30 08:08:59;;;;;;;14.27;9.30;;;16.30;99.90;;;;;;5126592;27;20547;-58
2023/08/30 08:11:25;;;;;;;10.30;8.35;;;16.30;99.90;;;;;;5099185;28;20134;-58
2023/08/30 08:13:51;;;;;;;18.00;9.35;;;16.50;99.90;;;;;;5096230;28;20043;-57
2023/08/30 08:16:17;;;;;;;13.70;8.98;;;16.70;99.90;;;;;;5082589;28;20101;-57
2023/08/30 08:18:42;;;;;;;14.52;9.13;;;16.90;99.90;;;;;;5124823;27;20078;-58
2023/08/30 08:21:08;;;;;;;13.25;9.57;;;17.10;99.90;;;;;;5097516;28;20485;-57
2023/08/30 08:23:34;;;;;;;14.07;9.25;;;17.20;99.90;;;;;;5082771;28;20046;-57
2023/08/30 08:26:00;;;;;;;13.85;9.68;;;17.20;99.90;;;;;;5093192;28;20681;-57
2023/08/30 08:28:27;;;;;;;13.20;9.45;;;17.20;99.90;;;;;;5128384;27;20081;-58
2023/08/30 08:30:53;;;;;;;10.40;8.23;;;17.10;99.90;;;;;;5092320;28;20055;-57
2023/08/30 08:33:19;;;;;;;12.05;8.95;;;17.10;99.90;;;;;;5101502;28;20217;-58
2023/08/30 08:35:45;;;;;;;15.00;9.55;;;17.00;99.90;;;;;;5098558;28;20441;-57
2023/08/30 08:38:11;;;;;;;12.20;9.48;;;17.00;99.90;;;;;;5093229;28;20039;-58
2023/08/30 08:40:40;;;;;;;11.20;8.70;;;16.90;99.90;;;;;;5124002;27;20040;-57
2023/08/30 08:43:07;;;;;;;13.68;10.10;;;16.90;99.90;;;;;;5089704;28;20126;-57
2023/08/30 08:45:36;;;;;;;13.18;9.73;;;16.80;99.90;;;;;;5090443;28;20119;-57
2023/08/30 08:48:06;;;;;;;14.52;8.88;;;16.90;99.90;;;;;;5096240;28;20118;-57
2023/08/30 08:50:35;;;;;;;13.70;9.68;;;16.80;99.90;;;;;;5064522;28;20051;-56
2023/08/30 08:53:03;;;;;;;11.63;8.82;;;16.80;99.90;;;;;;5094213;28;20044;-57
2023/08/30 08:55:30;;;;;;;15.25;8.63;;;16.80;99.90;;;;;;5129027;27;20126;-57
2023/08/30 08:57:58;;;;;;;13.45;8.95;;;16.80;99.90;;;;;;5097206;27;20051;-56
2023/08/30 09:00:25;;;;;;;11.75;8.95;;;16.80;99.90;;;;;;5097807;27;20040;-57
2023/08/30 09:02:52;;;;;;;12.98;8.50;;;16.80;99.90;;;;;;5098332;27;20290;-57
2023/08/30 09:05:19;;;;;;;13.75;8.82;;;16.80;99.90;;;;;;5098235;28;20406;-57
2023/08/30 09:07:45;;;;;;;13.20;9.55;;;16.90;99.90;;;;;;5096215;27;20035;-57
2023/08/30 09:10:11;;;;;;;14.43;8.82;;;16.90;99.90;;;;;;5127068;27;20070;-58
2023/08/30 09:12:37;;;;;;;14.20;7.45;;;16.90;99.90;;;;;;5097215;27;20071;-57
2023/08/30 09:15:04;;;;;;;9.45;7.60;;;16.80;99.90;;;;;;5077985;28;20467;-57
2023/08/30 09:17:39;;;;;;;9.65;6.70;;;16.60;99.90;;;;;;5096446;27;20048;-57
2023/08/30 09:20:10;;;;;;;11.05;6.72;;;16.50;99.90;;;;;;5094629;27;20113;-56
2023/08/30 09:22:40;;;;;;;9.95;6.85;;;16.50;99.90;;;;;;5094286;27;20040;-58
2023/08/30 09:25:11;;;;;;;8.40;6.47;;;16.30;99.90;;;;;;5096679;27;20044;-56
2023/08/30 09:27:38;;;;;;;11.63;7.18;;;16.40;99.90;;;;;;5095581;27;20048;-56
2023/08/30 09:30:08;;;;;;;12.25;7.68;;;16.20;99.90;;;;;;5092130;27;20247;-57
2023/08/30 09:32:39;;;;;;;9.65;7.80;;;16.20;99.90;;;;;;5127955;27;20043;-57
2023/08/30 09:35:06;;;;;;;10.40;7.43;;;16.30;99.90;;;;;;5093859;27;20411;-57
2023/08/30 09:37:31;;;;;;;9.82;6.40;;;16.30;99.90;;;;;;5096900;27;20123;-56
2023/08/30 09:39:57;;;;;;;8.30;6.35;;;16.30;99.90;;;;;;5094201;28;20039;-57
2023/08/30 09:42:23;;;;;;;9.23;7.05;;;16.30;99.90;;;;;;5127520;27;20047;-57
2023/08/30 09:44:49;;;;;;;9.43;7.90;;;16.40;99.90;;;;;;5097172;27;20043;-58
2023/08/30 09:47:17;;;;;;;9.13;7.00;;;16.40;99.90;;;;;;5124682;27;20156;-57
2023/08/30 09:49:45;;;;;;;10.50;7.18;;;16.40;99.90;;;;;;5094224;27;20047;-57
2023/08/30 09:52:14;;;;;;;9.88;7.60;;;16.40;99.90;;;;;;5123711;27;20044;-57
2023/08/30 09:54:43;;;;;;;9.68;6.68;;;16.40;99.90;;;;;;5088555;28;20135;-57
2023/08/30 09:57:10;;;;;;;8.80;6.78;;;16.50;99.90;;;;;;5095200;27;20494;-58
2023/08/30 09:59:37;;;;;;;8.75;6.43;;;16.50;99.90;;;;;;5099111;27;20486;-57
2023/08/30 10:02:04;;;;;;;11.93;7.40;;;16.40;99.90;;;;;;5127235;27;20051;-58
2023/08/30 10:04:34;;;;;;;11.18;6.88;;;16.50;99.90;;;;;;5089883;27;20756;-57
2023/08/30 10:07:04;;;;;;;8.57;6.53;;;16.40;99.90;;;;;;5095986;27;20091;-57
2023/08/30 10:09:30;;;;;;;10.73;6.35;;;16.40;99.90;;;;;;5090490;27;20051;-58
2023/08/30 10:11:58;;;;;;;8.15;6.97;;;16.40;99.90;;;;;;5097178;27;20036;-58
2023/08/30 10:14:23;;;;;;;8.60;7.00;;;16.50;99.90;;;;;;5095084;27;20043;-58
2023/08/30 10:16:56;;;;;;;10.18;7.20;;;16.50;99.90;;;;;;5083280;28;20039;-55
2023/08/30 10:19:27;;;;;;;11.80;7.78;;;16.60;99.90;;;;;;5125949;27;20109;-57
2023/08/30 10:22:08;;;;;;;9.88;7.40;;;16.60;99.90;;;;;;5092717;27;20036;-57
2023/08/30 10:24:41;;;;;;;9.77;7.15;;;16.60;99.90;;;;;;5079306;27;20040;-58
2023/08/30 10:27:09;;;;;;;8.95;7.40;;;16.70;99.90;;;;;;5099354;27;20034;-58
2023/08/30 10:29:38;;;;;;;8.98;7.28;;;16.70;99.90;;;;;;5062471;28;20047;-58
2023/08/30 10:32:05;;;;;;;12.30;8.55;;;16.70;99.90;;;;;;5087619;28;20040;-58
2023/08/30 10:34:35;;;;;;;7.80;6.15;;;16.70;99.90;;;;;;5122325;27;20050;-58
2023/08/30 10:37:02;;;;;;;10.98;7.47;;;16.60;99.90;;;;;;5124998;27;20162;-60
2023/08/30 10:39:36;;;;;;;8.35;6.35;;;16.60;99.90;;;;;;5127717;27;21766;-58
2023/08/30 10:42:13;;;;;;;9.00;6.97;;;16.60;99.90;;;;;;5097338;27;20044;-58
2023/08/30 10:45:12;;;;;;;8.02;6.22;;;16.50;99.90;;;;;;5071746;28;20040;-58
2023/08/30 10:47:38;;;;;;;8.52;6.75;;;16.50;99.90;;;;;;5090147;27;20304;-58
2023/08/30 10:50:08;;;;;;;9.13;7.60;;;16.50;99.90;;;;;;5129350;27;20475;-56
2023/08/30 10:52:35;;;;;;;9.52;6.60;;;16.50;99.90;;;;;;5105769;27;20067;-57
2023/08/30 10:55:09;;;;;;;7.47;6.07;;;16.60;99.90;;;;;;5128229;27;20413;-57
2023/08/30 10:57:35;;;;;;;11.55;6.93;;;16.60;99.90;;;;;;5104554;27;20491;-56
2023/08/30 11:00:08;;;;;;;9.88;7.63;;;16.60;99.90;;;;;;5097454;27;20127;-57
2023/08/30 11:02:34;;;;;;;9.48;6.60;;;16.60;99.90;;;;;;5096600;28;20128;-57
2023/08/30 11:05:00;;;;;;;9.90;7.13;;;16.60;99.90;;;;;;5094480;28;20047;-57
2023/08/30 11:07:26;;;;;;;10.13;7.20;;;16.60;99.90;;;;;;5126618;27;20483;-56
2023/08/30 11:09:52;;;;;;;7.68;6.72;;;16.60;99.90;;;;;;5091947;28;20036;-57
2023/08/30 11:12:19;;;;;;;10.90;7.47;;;16.60;99.90;;;;;;5099245;28;20095;-57
2023/08/30 11:14:45;;;;;;;9.00;6.88;;;16.60;99.90;;;;;;5107825;27;20122;-56
2023/08/30 11:17:10;;;;;;;10.43;7.40;;;16.60;99.90;;;;;;5081343;28;20055;-57
2023/08/30 11:19:36;;;;;;;12.27;7.53;;;16.50;99.90;;;;;;5077710;28;20597;-57
2023/08/30 11:22:02;;;;;;;10.77;8.38;;;16.50;99.90;;;;;;5096796;28;20035;-57
2023/08/30 11:24:28;;;;;;;11.23;7.50;;;16.50;99.90;;;;;;5123061;27;20043;-57
2023/08/30 11:26:55;;;;;;;10.02;7.22;;;16.50;99.90;;;;;;5092160;28;20785;-56
2023/08/30 11:29:21;;;;;;;11.48;7.78;;;16.40;99.90;;;;;;5094620;28;20035;-57
2023/08/30 11:31:46;;;;;;;9.43;7.80;;;16.40;99.90;;;;;;5127671;27;20411;-57
2023/08/30 11:34:12;;;;;;;10.20;8.23;;;16.40;99.90;;;;;;5100766;27;20039;-57
2023/08/30 11:36:39;;;;;;;10.30;7.97;;;16.40;99.90;;;;;;5091577;28;20053;-58
2023/08/30 11:39:06;;;;;;;9.10;7.47;;;16.40;99.90;;;;;;5081953;28;20426;-57
2023/08/30 11:41:32;;;;;;;11.05;8.15;;;16.50;99.90;;;;;;5091198;28;20118;-58
2023/08/30 11:43:59;;;;;;;11.70;9.00;;;16.50;99.90;;;;;;5098769;28;20043;-56
2023/08/30 11:46:24;;;;;;;9.65;8.38;;;16.50;99.90;;;;;;5090427;28;20048;-57
2023/08/30 11:48:52;;;;;;;8.68;7.13;;;16.30;99.90;;;;;;5092289;27;20043;-57
2023/08/30 11:51:19;;;;;;;8.68;7.78;;;16.30;99.90;;;;;;5096721;28;20407;-56
2023/08/30 11:53:46;;;;;;;9.63;7.22;;;16.20;99.90;;;;;;5093584;28;20043;-57
2023/08/30 11:56:12;;;;;;;8.55;6.35;;;16.10;99.90;;;;;;5092065;28;20469;-57
2023/08/30 11:58:38;;;;;;;9.38;6.53;;;16.00;99.90;;;;;;5090325;27;20124;-56
2023/08/30 12:01:04;;;;;;;9.05;7.07;;;16.00;99.90;;;;;;5098502;28;20093;-57
2023/08/30 12:03:31;;;;;;;9.40;7.28;;;16.00;99.90;;;;;;5090160;27;20179;-58
2023/08/30 12:05:58;;;;;;;8.13;6.47;;;15.90;99.90;;;;;;5126436;27;20042;-58
2023/08/30 12:08:25;;;;;;;10.02;7.75;;;15.90;99.90;;;;;;5093924;28;20410;-57
2023/08/30 12:10:52;;;;;;;10.13;6.60;;;16.00;99.90;;;;;;5072740;28;20036;-57
2023/08/30 12:13:28;;;;;;;9.82;7.28;;;16.10;99.90;;;;;;5084443;28;20051;-58
2023/08/30 12:15:57;;;;;;;9.43;7.10;;;16.20;99.90;;;;;;5093361;28;20051;-57
2023/08/30 12:18:27;;;;;;;9.23;7.18;;;16.10;99.90;;;;;;5123505;27;20166;-57
2023/08/30 12:21:03;;;;;;;8.98;7.32;;;16.00;99.90;;;;;;5090550;28;20036;-58
2023/08/30 12:23:30;;;;;;;9.40;6.93;;;15.80;99.90;;;;;;5123079;27;20191;-57
2023/08/30 12:26:04;;;;;;;7.45;6.68;;;15.90;99.90;;;;;;5095995;27;20043;-57
2023/08/30 12:28:32;;;;;;;9.35;7.03;;;15.80;99.90;;;;;;5128986;27;20335;-58
2023/08/30 12:30:58;;;;;;;11.00;7.57;;;15.90;99.90;;;;;;5108336;27;20446;-57
2023/08/30 12:33:30;;;;;;;9.95;7.78;;;15.90;99.90;;;;;;5092013;28;20096;-57